Time;durP1;ratioP1;P1;durP2;ratioP2;P2;SDS_P1;SDS_P2;PMS_P1;PMS_P2;Temp;Humidity;BMP_temperature;BMP_pressure;BME280_temperature;BME280_humidity;BME280_pressure;Samples;Min_cycle;Max_cycle;Signal;HPM_P1;HPM_P2
2024/01/09 00:00:58;;;;;;;5.10;2.10;;;;;;;-4.92;64.61;103273.63;4968550;28;20035;-90
2024/01/09 00:03:23;;;;;;;3.73;2.00;;;;;;;-4.91;64.75;103270.31;4949516;28;20066;-90
2024/01/09 00:05:49;;;;;;;5.67;1.90;;;;;;;-4.93;64.72;103266.78;4969264;28;20037;-89
2024/01/09 00:08:14;;;;;;;3.90;1.90;;;;;;;-4.96;64.99;103262.38;4969539;28;20150;-90
2024/01/09 00:10:39;;;;;;;5.53;2.00;;;;;;;-4.96;64.63;103257.28;4952680;28;20030;-90
2024/01/09 00:13:04;;;;;;;4.80;1.83;;;;;;;-5.00;65.12;103252.72;4953038;28;20679;-91
2024/01/09 00:15:30;;;;;;;4.77;1.90;;;;;;;-5.00;65.48;103265.44;4970340;28;20035;-90
2024/01/09 00:17:59;;;;;;;4.10;1.83;;;;;;;-5.03;65.32;103255.03;4970485;28;20066;-89
2024/01/09 00:20:24;;;;;;;4.57;2.00;;;;;;;-5.06;65.14;103254.81;4970103;28;20050;-89
2024/01/09 00:22:51;;;;;;;4.73;2.00;;;;;;;-5.05;65.29;103257.47;4969118;28;20440;-91
2024/01/09 00:25:18;;;;;;;4.97;2.00;;;;;;;-5.03;65.18;103261.00;4951715;28;20066;-90
2024/01/09 00:27:44;;;;;;;3.40;1.60;;;;;;;-5.05;65.93;103261.66;4969115;28;20078;-89
2024/01/09 00:30:10;;;;;;;5.07;2.10;;;;;;;-5.07;65.42;103259.00;4970139;28;20114;-90
2024/01/09 00:32:36;;;;;;;4.77;1.80;;;;;;;-5.07;65.31;103258.13;4969113;28;20069;-89
2024/01/09 00:35:01;;;;;;;3.37;1.70;;;;;;;-5.06;65.17;103262.44;4970335;28;20078;-90
2024/01/09 00:37:26;;;;;;;5.40;2.20;;;;;;;-5.10;65.86;103258.75;4970256;28;20126;-90
2024/01/09 00:39:52;;;;;;;4.03;2.00;;;;;;;-5.09;65.71;103260.53;4948372;28;20081;-90
2024/01/09 00:42:17;;;;;;;3.73;2.10;;;;;;;-5.08;65.47;103257.22;4971293;28;20035;-89
2024/01/09 00:44:42;;;;;;;3.60;1.57;;;;;;;-5.10;65.79;103256.22;4954146;28;20031;-89
2024/01/09 00:47:08;;;;;;;3.77;1.60;;;;;;;-5.09;65.75;103257.97;4971231;28;20026;-91
2024/01/09 00:49:33;;;;;;;4.30;1.90;;;;;;;-5.14;66.08;103261.84;4971402;28;20100;-91
2024/01/09 00:51:58;;;;;;;5.03;1.97;;;;;;;-5.13;65.54;103268.69;4970185;28;20648;-90
2024/01/09 00:54:24;;;;;;;5.63;2.00;;;;;;;-5.16;65.83;103265.91;4971822;28;20185;-91
2024/01/09 00:56:49;;;;;;;4.50;1.87;;;;;;;-5.15;65.92;103265.13;4970014;28;20026;-88
2024/01/09 00:59:14;;;;;;;5.77;2.40;;;;;;;-5.13;65.46;103258.53;4971049;28;20133;-90
2024/01/09 01:01:40;;;;;;;3.57;1.77;;;;;;;-5.15;65.94;103262.59;4954121;28;20440;-91
2024/01/09 01:04:05;;;;;;;4.53;2.07;;;;;;;-5.17;65.96;103261.59;4971009;28;20026;-90
2024/01/09 01:06:40;;;;;;;6.37;2.30;;;;;;;-5.21;65.88;103259.56;4970960;28;20105;-90
2024/01/09 01:09:05;;;;;;;4.67;2.07;;;;;;;-5.20;66.24;103253.72;4970927;28;20483;-90
2024/01/09 01:11:32;;;;;;;4.00;1.87;;;;;;;-5.18;66.13;103259.81;4970704;28;20070;-90
2024/01/09 01:13:57;;;;;;;5.20;2.13;;;;;;;-5.23;66.08;103261.09;4949940;28;20129;-90
2024/01/09 01:16:23;;;;;;;5.67;1.80;;;;;;;-5.25;65.82;103255.00;4968289;28;20053;-91
2024/01/09 01:18:48;;;;;;;3.13;1.87;;;;;;;-5.24;65.85;103261.88;4948756;28;20498;-92
2024/01/09 01:21:15;;;;;;;3.57;1.80;;;;;;;-5.26;66.12;103258.31;4952397;28;20488;-91
2024/01/09 01:23:41;;;;;;;3.40;1.70;;;;;;;-5.30;66.00;103259.72;4950717;28;20026;-91
2024/01/09 01:26:06;;;;;;;4.13;2.00;;;;;;;-5.30;66.38;103253.78;4947290;28;20530;-92
2024/01/09 01:28:31;;;;;;;4.57;2.03;;;;;;;-5.26;65.62;103261.75;4967734;28;20416;-92
2024/01/09 01:30:57;;;;;;;3.70;1.80;;;;;;;-5.31;65.56;103264.69;4953670;28;20376;-91
2024/01/09 01:33:22;;;;;;;5.13;2.10;;;;;;;-5.29;66.31;103255.56;4969585;28;20110;-92
2024/01/09 01:35:47;;;;;;;5.53;2.10;;;;;;;-5.34;66.41;103268.78;4944503;28;20553;-92
2024/01/09 01:38:13;;;;;;;3.90;2.07;;;;;;;-5.37;66.31;103265.06;4967222;28;20571;-91
2024/01/09 01:40:38;;;;;;;4.07;2.00;;;;;;;-5.34;65.92;103262.78;4946865;28;20720;-93
2024/01/09 01:43:05;;;;;;;3.27;1.70;;;;;;;-5.36;66.31;103267.75;4964865;28;20026;-94
2024/01/09 01:45:30;;;;;;;4.07;1.90;;;;;;;-5.35;66.72;103264.44;4965209;28;20027;-93
2024/01/09 01:47:57;;;;;;;3.53;1.70;;;;;;;-5.35;66.30;103266.09;4968013;28;20492;-93
2024/01/09 01:50:23;;;;;;;4.13;1.73;;;;;;;-5.36;65.97;103262.69;4952243;28;20023;-93
2024/01/09 01:52:51;;;;;;;4.50;1.90;;;;;;;-5.35;66.09;103263.56;4966413;28;20054;-93
2024/01/09 01:55:20;;;;;;;3.70;1.80;;;;;;;-5.36;66.37;103255.06;4968160;28;20118;-95
2024/01/09 01:57:49;;;;;;;6.03;2.17;;;;;;;-5.40;66.37;103254.72;4967938;28;20043;-93
2024/01/09 02:00:16;;;;;;;4.33;2.00;;;;;;;-5.40;66.34;103258.13;4966295;28;20042;-93
2024/01/09 02:02:44;;;;;;;4.90;2.30;;;;;;;-5.43;66.73;103257.00;4971416;28;20035;-93
2024/01/09 02:05:11;;;;;;;4.10;1.77;;;;;;;-5.45;66.86;103259.41;4969269;28;20037;-92
2024/01/09 02:07:39;;;;;;;4.63;1.93;;;;;;;-5.41;66.77;103256.34;4950231;28;20035;-91
2024/01/09 02:10:04;;;;;;;4.20;2.10;;;;;;;-5.42;66.43;103257.09;4967986;28;20026;-92
2024/01/09 02:12:30;;;;;;;3.83;2.00;;;;;;;-5.36;66.64;103265.22;4969064;28;20049;-92
2024/01/09 02:14:55;;;;;;;4.73;2.00;;;;;;;-5.37;67.07;103268.53;4967289;28;20034;-92
2024/01/09 02:17:21;;;;;;;3.97;1.90;;;;;;;-5.36;66.97;103262.69;4952586;28;20089;-91
2024/01/09 02:19:47;;;;;;;5.17;1.87;;;;;;;-5.37;66.87;103260.91;4955469;28;20038;-90
2024/01/09 02:22:13;;;;;;;4.03;1.70;;;;;;;-5.38;67.09;103254.06;4952227;28;20045;-91
2024/01/09 02:24:39;;;;;;;3.93;1.53;;;;;;;-5.36;66.86;103259.25;4970109;28;20023;-92
2024/01/09 02:27:29;;;;;;;4.67;2.10;;;;;;;-5.39;66.83;103256.50;4968883;28;20056;-91
2024/01/09 02:29:54;;;;;;;5.23;2.20;;;;;;;-5.43;67.67;103257.00;4949642;28;20027;-90
2024/01/09 02:32:21;;;;;;;4.20;2.00;;;;;;;-5.45;67.23;103254.31;4968572;28;20392;-90
2024/01/09 02:34:48;;;;;;;5.60;2.00;;;;;;;-5.44;66.65;103251.03;4968894;28;20041;-91
2024/01/09 02:37:13;;;;;;;4.53;2.47;;;;;;;-5.42;67.20;103246.97;4970710;28;20511;-91
2024/01/09 02:39:39;;;;;;;6.30;2.00;;;;;;;-5.44;67.15;103248.50;4954608;28;20118;-90
2024/01/09 02:42:04;;;;;;;4.03;1.80;;;;;;;-5.44;67.08;103245.94;4972414;28;20126;-91
2024/01/09 02:44:29;;;;;;;4.10;2.10;;;;;;;-5.43;67.43;103241.78;4967558;28;20160;-91
2024/01/09 02:46:55;;;;;;;4.67;2.07;;;;;;;-5.47;67.30;103238.13;4970948;28;20042;-92
2024/01/09 02:49:20;;;;;;;4.07;1.63;;;;;;;-5.47;67.62;103239.75;4954068;28;20050;-92
2024/01/09 02:51:46;;;;;;;5.90;1.83;;;;;;;-5.49;67.28;103237.13;4970936;28;20073;-91
2024/01/09 02:54:11;;;;;;;4.63;2.20;;;;;;;-5.50;67.69;103240.41;4968581;28;20641;-91
2024/01/09 02:56:39;;;;;;;4.37;2.00;;;;;;;-5.51;67.71;103233.56;4973729;28;20641;-91
2024/01/09 02:59:05;;;;;;;5.30;2.17;;;;;;;-5.55;67.67;103237.50;4969261;28;20031;-91
2024/01/09 03:01:31;;;;;;;3.90;1.80;;;;;;;-5.56;67.76;103237.38;4971844;28;20042;-91
2024/01/09 03:03:56;;;;;;;3.97;1.90;;;;;;;-5.58;67.71;103236.38;4969815;28;20042;-90
2024/01/09 03:06:21;;;;;;;6.30;2.00;;;;;;;-5.60;67.75;103235.34;4972046;28;20033;-91
2024/01/09 03:08:48;;;;;;;4.03;1.80;;;;;;;-5.59;68.01;103230.44;4953373;28;20038;-90
2024/01/09 03:11:14;;;;;;;4.70;2.10;;;;;;;-5.62;68.37;103232.72;4952967;28;20085;-91
2024/01/09 03:13:39;;;;;;;4.43;1.70;;;;;;;-5.63;67.89;103226.75;4970581;28;20058;-90
2024/01/09 03:16:12;;;;;;;4.43;1.97;;;;;;;-5.63;68.37;103229.28;4971126;28;20469;-91
2024/01/09 03:18:38;;;;;;;5.07;2.07;;;;;;;-5.62;67.90;103232.72;4972395;28;20152;-91
2024/01/09 03:21:04;;;;;;;4.13;1.93;;;;;;;-5.66;68.26;103234.13;4970643;28;20034;-91
2024/01/09 03:23:31;;;;;;;4.23;1.90;;;;;;;-5.65;67.94;103237.53;4971777;28;20039;-91
2024/01/09 03:25:56;;;;;;;3.30;1.73;;;;;;;-5.65;68.29;103235.00;4969306;28;20079;-91
2024/01/09 03:28:22;;;;;;;4.07;1.90;;;;;;;-5.65;68.31;103240.97;4972737;28;20110;-91
2024/01/09 03:30:47;;;;;;;4.87;2.00;;;;;;;-5.69;68.65;103232.97;4969476;28;20034;-91
2024/01/09 03:33:12;;;;;;;4.57;1.80;;;;;;;-5.72;68.66;103230.22;4972622;28;20393;-91
2024/01/09 03:35:38;;;;;;;4.63;2.20;;;;;;;-5.68;68.37;103238.19;4970356;28;20503;-90
2024/01/09 03:38:03;;;;;;;4.33;1.80;;;;;;;-5.69;68.77;103238.06;4952476;28;20126;-91
2024/01/09 03:40:29;;;;;;;4.23;1.93;;;;;;;-5.71;68.41;103232.88;4971672;28;20546;-91
2024/01/09 03:42:54;;;;;;;3.50;1.67;;;;;;;-5.68;68.60;103234.75;4970483;28;20055;-90
2024/01/09 03:45:20;;;;;;;4.47;2.00;;;;;;;-5.70;68.55;103237.19;4964206;28;20055;-91
2024/01/09 03:47:45;;;;;;;4.60;2.07;;;;;;;-5.73;68.66;103236.94;4955042;28;20459;-90
2024/01/09 03:50:10;;;;;;;4.80;2.00;;;;;;;-5.76;68.98;103231.59;4970317;28;20031;-91
2024/01/09 03:52:35;;;;;;;4.23;1.97;;;;;;;-5.75;68.69;103225.78;4971416;28;20026;-91
2024/01/09 03:55:01;;;;;;;4.20;1.97;;;;;;;-5.73;68.62;103226.78;4950706;28;20540;-90
2024/01/09 03:57:26;;;;;;;5.60;2.30;;;;;;;-5.75;68.71;103228.31;4968777;28;20502;-90
2024/01/09 03:59:51;;;;;;;4.03;2.10;;;;;;;-5.81;69.74;103228.72;4967863;28;20042;-91
2024/01/09 04:02:17;;;;;;;3.63;1.60;;;;;;;-5.80;68.69;103232.13;4968905;28;20026;-92
2024/01/09 04:04:42;;;;;;;4.23;1.80;;;;;;;-5.79;69.08;103222.13;4971640;28;20030;-90
2024/01/09 04:07:07;;;;;;;5.00;1.93;;;;;;;-5.82;69.29;103226.06;4967654;28;20096;-90
2024/01/09 04:09:33;;;;;;;5.20;2.20;;;;;;;-5.84;69.06;103227.59;4950995;28;20023;-90
2024/01/09 04:11:58;;;;;;;6.07;2.10;;;;;;;-5.84;69.33;103222.50;4969888;28;20550;-90
2024/01/09 04:14:23;;;;;;;3.57;1.87;;;;;;;-5.85;69.58;103226.69;4970461;28;20476;-91
2024/01/09 04:16:49;;;;;;;4.67;2.07;;;;;;;-5.85;69.30;103220.75;4971264;28;20452;-91
2024/01/09 04:19:14;;;;;;;4.50;1.90;;;;;;;-5.85;68.89;103224.16;4967363;28;20035;-89
2024/01/09 04:21:39;;;;;;;4.53;2.00;;;;;;;-5.87;69.29;103222.25;4968031;28;20023;-89
2024/01/09 04:24:05;;;;;;;4.17;1.80;;;;;;;-5.90;69.27;103228.00;4970886;28;20027;-90
2024/01/09 04:26:30;;;;;;;4.07;1.80;;;;;;;-5.89;69.31;103221.25;4971663;28;20038;-90
2024/01/09 04:28:55;;;;;;;4.73;1.90;;;;;;;-5.91;69.06;103228.75;4971149;28;20088;-90
2024/01/09 04:31:24;;;;;;;4.70;1.90;;;;;;;-5.91;69.93;103230.38;4969424;28;20031;-90
2024/01/09 04:33:49;;;;;;;5.60;2.27;;;;;;;-5.92;69.64;103231.13;4969466;28;20062;-90
2024/01/09 04:36:16;;;;;;;4.77;2.00;;;;;;;-5.92;69.74;103233.66;4970585;28;20033;-91
2024/01/09 04:38:42;;;;;;;4.60;2.13;;;;;;;-5.91;69.69;103232.91;4948510;28;20038;-91
2024/01/09 04:41:07;;;;;;;3.67;1.90;;;;;;;-5.89;69.26;103221.25;4970688;28;20038;-90
2024/01/09 04:43:33;;;;;;;4.93;2.00;;;;;;;-5.94;69.74;103231.91;4970335;28;20041;-91
2024/01/09 04:45:58;;;;;;;5.30;2.10;;;;;;;-5.94;69.73;103231.03;4969658;28;20034;-91
2024/01/09 04:48:23;;;;;;;4.00;1.90;;;;;;;-5.95;69.71;103224.19;4966561;28;20034;-90
2024/01/09 04:50:48;;;;;;;4.03;1.77;;;;;;;-5.97;69.66;103226.56;4949438;28;20031;-92
2024/01/09 04:53:14;;;;;;;3.87;1.90;;;;;;;-5.97;69.56;103229.09;4948250;28;20061;-91
2024/01/09 04:55:39;;;;;;;4.07;1.63;;;;;;;-5.98;69.69;103223.94;4950587;28;20093;-90
2024/01/09 04:58:04;;;;;;;5.73;2.00;;;;;;;-5.98;70.17;103226.47;4969779;28;20487;-91
2024/01/09 05:00:30;;;;;;;5.27;2.10;;;;;;;-5.95;69.36;103225.06;4967606;28;20108;-90
2024/01/09 05:02:55;;;;;;;5.80;2.00;;;;;;;-5.97;69.79;103216.44;4967194;28;20037;-89
2024/01/09 05:05:21;;;;;;;5.43;2.40;;;;;;;-5.98;69.73;103224.81;4970214;28;20069;-90
2024/01/09 05:07:46;;;;;;;5.33;2.33;;;;;;;-6.00;69.62;103220.41;4969408;28;20030;-90
2024/01/09 05:10:12;;;;;;;3.57;1.67;;;;;;;-6.02;69.85;103225.38;4966888;28;20130;-91
2024/01/09 05:12:37;;;;;;;3.97;1.60;;;;;;;-6.03;69.79;103213.47;4968224;28;20113;-91
2024/01/09 05:15:03;;;;;;;5.90;2.10;;;;;;;-6.02;70.08;103216.88;4968801;28;20023;-90
2024/01/09 05:17:28;;;;;;;5.20;2.37;;;;;;;-5.99;69.95;103212.91;4968752;28;20085;-91
2024/01/09 05:19:54;;;;;;;4.40;2.40;;;;;;;-6.01;69.45;103219.53;4969008;28;20070;-90
2024/01/09 05:22:19;;;;;;;4.93;2.30;;;;;;;-6.04;69.80;103219.28;4968688;28;20058;-89
2024/01/09 05:24:44;;;;;;;6.37;2.47;;;;;;;-6.05;69.82;103222.59;4969086;28;20387;-91
2024/01/09 05:27:10;;;;;;;5.83;2.10;;;;;;;-6.06;70.49;103220.81;4968990;28;20724;-91
2024/01/09 05:29:38;;;;;;;4.67;2.50;;;;;;;-6.05;69.79;103222.59;4967623;28;20030;-89
2024/01/09 05:32:03;;;;;;;5.23;1.80;;;;;;;-6.06;70.21;103228.41;4968458;28;20030;-90
2024/01/09 05:34:29;;;;;;;4.77;2.13;;;;;;;-6.08;70.29;103224.00;4967551;28;20088;-91
2024/01/09 05:36:55;;;;;;;4.80;2.20;;;;;;;-6.10;69.80;103219.69;4970054;28;20038;-90
2024/01/09 05:39:20;;;;;;;5.07;2.30;;;;;;;-6.10;69.81;103224.75;4967161;28;20022;-90
2024/01/09 05:41:45;;;;;;;5.13;2.10;;;;;;;-6.10;69.64;103216.25;4966552;28;20496;-90
2024/01/09 05:44:11;;;;;;;5.60;2.50;;;;;;;-6.13;70.13;103218.53;4948016;28;20027;-91
2024/01/09 05:46:36;;;;;;;4.60;2.07;;;;;;;-6.13;70.19;103223.59;4951166;28;20030;-90
2024/01/09 05:49:01;;;;;;;5.70;2.70;;;;;;;-6.13;69.98;103218.53;4967351;28;20042;-91
2024/01/09 05:51:27;;;;;;;5.90;2.50;;;;;;;-6.14;70.12;103217.66;4967661;28;20039;-91
2024/01/09 05:53:52;;;;;;;6.03;2.50;;;;;;;-6.14;70.28;103221.81;4969444;28;20027;-91
2024/01/09 05:56:17;;;;;;;5.27;2.10;;;;;;;-6.16;70.25;103218.31;4953728;28;20439;-91
2024/01/09 05:58:43;;;;;;;4.10;2.00;;;;;;;-6.15;70.72;103215.00;4973608;28;20034;-91
2024/01/09 06:01:08;;;;;;;6.60;2.90;;;;;;;-6.16;70.46;103220.84;4969197;28;20551;-90
2024/01/09 06:03:34;;;;;;;4.67;2.07;;;;;;;-6.19;70.79;103218.06;4973483;28;20579;-90
2024/01/09 06:05:59;;;;;;;4.70;2.00;;;;;;;-6.19;70.38;103221.47;4971212;28;20022;-90
2024/01/09 06:08:24;;;;;;;4.80;2.20;;;;;;;-6.17;70.71;103214.88;4957651;28;20046;-91
2024/01/09 06:10:50;;;;;;;5.50;2.10;;;;;;;-6.19;70.48;103216.38;4958552;28;20392;-92
2024/01/09 06:13:15;;;;;;;5.57;2.07;;;;;;;-6.19;71.18;103218.06;4975001;28;20396;-90
2024/01/09 06:15:40;;;;;;;4.67;2.20;;;;;;;-6.22;71.32;103218.66;4973099;28;20510;-90
2024/01/09 06:18:07;;;;;;;5.33;2.00;;;;;;;-6.22;70.84;103221.19;4956958;28;20174;-91
2024/01/09 06:20:33;;;;;;;4.93;2.27;;;;;;;-6.23;71.51;103219.41;4967950;28;20543;-91
2024/01/09 06:22:58;;;;;;;5.27;2.53;;;;;;;-6.24;71.48;103220.22;4970901;28;20035;-91
2024/01/09 06:25:23;;;;;;;6.80;2.60;;;;;;;-6.25;71.43;103219.31;4953907;28;20037;-90
2024/01/09 06:27:49;;;;;;;5.30;2.50;;;;;;;-6.25;71.55;103219.31;4968289;28;20023;-91
2024/01/09 06:30:14;;;;;;;5.93;2.40;;;;;;;-6.25;71.30;103223.50;4973275;28;20058;-90
2024/01/09 06:32:41;;;;;;;4.57;2.60;;;;;;;-6.27;71.66;103225.03;4972470;28;20023;-91
2024/01/09 06:35:07;;;;;;;5.73;2.37;;;;;;;-6.29;71.70;103217.28;4971979;28;21131;-91
2024/01/09 06:37:33;;;;;;;4.27;1.90;;;;;;;-6.28;71.40;103225.78;4971581;28;20035;-91
2024/01/09 06:39:58;;;;;;;6.20;2.67;;;;;;;-6.30;71.93;103237.44;4972036;28;20027;-90
2024/01/09 06:42:24;;;;;;;4.33;2.03;;;;;;;-6.30;71.71;103235.78;4969452;28;20034;-91
2024/01/09 06:44:49;;;;;;;4.73;2.10;;;;;;;-6.31;72.21;103234.00;4973391;28;20031;-90
2024/01/09 06:47:14;;;;;;;4.93;2.40;;;;;;;-6.32;72.40;103232.22;4972526;28;20035;-89
2024/01/09 06:49:39;;;;;;;5.03;2.33;;;;;;;-6.33;72.59;103243.16;4971009;28;20049;-90
2024/01/09 06:52:05;;;;;;;4.47;2.10;;;;;;;-6.31;72.05;103243.25;4971618;28;20035;-91
2024/01/09 06:54:30;;;;;;;6.37;2.90;;;;;;;-6.33;72.22;103245.69;4972171;28;20109;-92
2024/01/09 06:56:56;;;;;;;5.90;2.70;;;;;;;-6.34;72.21;103248.06;4970251;28;20058;-91
2024/01/09 06:59:21;;;;;;;5.37;2.40;;;;;;;-6.35;71.72;103249.72;4957465;28;20034;-92
2024/01/09 07:01:46;;;;;;;5.33;2.27;;;;;;;-6.36;72.20;103245.41;4954056;28;20022;-90
2024/01/09 07:04:13;;;;;;;6.33;2.33;;;;;;;-6.38;72.25;103246.03;4968499;28;20061;-90
2024/01/09 07:06:38;;;;;;;5.30;2.63;;;;;;;-6.40;72.83;103244.25;4969728;28;20062;-90
2024/01/09 07:09:04;;;;;;;5.30;2.40;;;;;;;-6.39;72.67;103245.16;4971268;28;20439;-90
2024/01/09 07:11:29;;;;;;;7.13;2.53;;;;;;;-6.41;72.48;103256.81;4970080;28;20437;-91
2024/01/09 07:13:55;;;;;;;5.53;2.20;;;;;;;-6.41;72.63;103255.19;4972555;28;20440;-90
2024/01/09 07:16:20;;;;;;;5.50;2.73;;;;;;;-6.39;72.04;103252.75;4973431;28;20030;-91
2024/01/09 07:18:46;;;;;;;5.53;2.23;;;;;;;-6.39;72.46;103255.28;4971900;28;20031;-91
2024/01/09 07:21:11;;;;;;;6.13;2.43;;;;;;;-6.39;72.07;103257.81;4967091;28;20113;-92
2024/01/09 07:23:36;;;;;;;5.37;2.27;;;;;;;-6.40;72.38;103249.31;4972832;28;20042;-91
2024/01/09 07:26:02;;;;;;;6.47;2.60;;;;;;;-6.42;72.14;103260.09;4970373;28;20035;-91
2024/01/09 07:28:27;;;;;;;5.67;2.37;;;;;;;-6.42;72.52;103260.09;4970888;28;20031;-91
2024/01/09 07:30:54;;;;;;;5.57;2.50;;;;;;;-6.44;72.45;103261.63;4951620;28;20601;-90
2024/01/09 07:33:19;;;;;;;5.40;2.60;;;;;;;-6.42;72.18;103267.69;4971459;28;20143;-90
2024/01/09 07:35:45;;;;;;;5.33;2.57;;;;;;;-6.42;72.48;103265.16;4968888;28;20101;-91
2024/01/09 07:38:10;;;;;;;5.97;2.70;;;;;;;-6.43;72.29;103263.38;4971686;28;20049;-90
2024/01/09 07:40:36;;;;;;;6.73;2.90;;;;;;;-6.43;72.97;103270.97;4970913;28;20509;-91
2024/01/09 07:43:02;;;;;;;6.80;2.40;;;;;;;-6.45;72.97;103275.03;4949037;28;20031;-90
2024/01/09 07:45:29;;;;;;;5.77;2.73;;;;;;;-6.47;72.94;103274.91;4966947;28;20038;-89
2024/01/09 07:47:55;;;;;;;4.97;2.30;;;;;;;-6.47;72.34;103274.91;4970961;28;20033;-92
2024/01/09 07:50:21;;;;;;;6.33;2.83;;;;;;;-6.46;72.67;103284.28;4969936;28;20027;-91
2024/01/09 07:52:47;;;;;;;6.90;3.00;;;;;;;-6.45;72.41;103280.09;4970280;28;20112;-90
2024/01/09 07:55:12;;;;;;;6.17;3.03;;;;;;;-6.49;73.23;103273.03;4969932;28;20037;-92
2024/01/09 07:57:38;;;;;;;6.57;2.70;;;;;;;-6.47;73.10;103271.47;4969561;28;20029;-91
2024/01/09 08:00:04;;;;;;;6.97;2.93;;;;;;;-6.49;72.87;103280.63;4970907;28;20435;-91
2024/01/09 08:02:30;;;;;;;7.87;2.80;;;;;;;-6.48;72.97;103279.84;4968154;28;20035;-93
2024/01/09 08:04:55;;;;;;;5.70;3.00;;;;;;;-6.48;72.77;103284.91;4971496;28;20132;-91
2024/01/09 08:07:20;;;;;;;7.13;3.17;;;;;;;-6.48;72.56;103279.84;4972142;28;20476;-90
2024/01/09 08:09:46;;;;;;;6.20;2.80;;;;;;;-6.51;72.96;103285.53;4969563;28;20033;-91
2024/01/09 08:12:12;;;;;;;8.17;3.50;;;;;;;-6.45;73.20;103290.22;4968962;28;20015;-90
2024/01/09 08:14:37;;;;;;;7.93;3.27;;;;;;;-6.48;73.29;103300.09;4969769;28;20472;-91
2024/01/09 08:17:03;;;;;;;7.77;3.23;;;;;;;-6.49;73.35;103293.28;4971580;28;20082;-89
2024/01/09 08:19:28;;;;;;;7.03;3.07;;;;;;;-6.47;73.29;103287.56;4954912;28;20034;-90
2024/01/09 08:21:54;;;;;;;7.80;3.40;;;;;;;-6.45;72.70;103290.22;4972326;28;20213;-90
2024/01/09 08:24:19;;;;;;;7.83;3.20;;;;;;;-6.46;72.77;103298.59;4956993;28;20038;-91
2024/01/09 08:26:49;;;;;;;7.60;3.13;;;;;;;-6.45;72.74;103287.69;4955699;28;20165;-89
2024/01/09 08:29:17;;;;;;;7.23;3.47;;;;;;;-6.47;73.32;103294.28;4968618;28;20114;-90
2024/01/09 08:31:47;;;;;;;8.50;3.30;;;;;;;-6.43;73.03;103298.84;4969476;28;20026;-90
2024/01/09 08:34:12;;;;;;;5.97;3.20;;;;;;;-6.43;72.96;103288.72;4953553;28;20110;-90
2024/01/09 08:36:39;;;;;;;8.70;3.77;;;;;;;-6.42;73.37;103290.50;4971884;28;20659;-89
2024/01/09 08:39:04;;;;;;;7.77;3.43;;;;;;;-6.40;72.65;103299.09;4947356;28;20029;-89
2024/01/09 08:41:30;;;;;;;7.90;3.30;;;;;;;-6.38;72.36;103301.75;4972405;28;20422;-89
2024/01/09 08:43:55;;;;;;;9.20;3.60;;;;;;;-6.37;72.38;103301.91;4971397;28;20030;-89
2024/01/09 08:46:20;;;;;;;8.03;3.67;;;;;;;-6.35;72.09;103302.91;4971088;28;20477;-90
2024/01/09 08:48:46;;;;;;;11.87;3.77;;;;;;;-6.32;72.53;103303.16;4953759;28;20097;-90
2024/01/09 08:51:12;;;;;;;6.87;3.03;;;;;;;-6.30;72.93;103305.81;4967148;28;20023;-91
2024/01/09 08:53:37;;;;;;;7.37;3.17;;;;;;;-6.26;72.74;103312.94;4954018;28;20027;-89
2024/01/09 08:56:03;;;;;;;7.57;3.20;;;;;;;-6.22;72.16;103314.94;4969485;28;20089;-89
2024/01/09 08:58:28;;;;;;;7.63;3.30;;;;;;;-6.21;72.07;103310.78;4951125;28;20019;-89
2024/01/09 09:00:53;;;;;;;8.53;3.73;;;;;;;-6.18;71.86;103305.97;4970366;28;20710;-88
2024/01/09 09:03:19;;;;;;;7.53;3.17;;;;;;;-6.14;72.01;103310.50;4968989;28;20694;-89
2024/01/09 09:05:44;;;;;;;8.13;3.70;;;;;;;-6.14;71.74;103315.56;4968972;28;20034;-88
2024/01/09 09:08:11;;;;;;;6.77;3.13;;;;;;;-6.12;72.09;103314.06;4968008;28;20058;-87
2024/01/09 09:10:36;;;;;;;7.50;3.20;;;;;;;-6.08;71.62;103323.69;4950569;28;20038;-87
2024/01/09 09:13:03;;;;;;;8.17;3.70;;;;;;;-6.03;71.56;103322.44;4970852;28;20490;-88
2024/01/09 09:15:28;;;;;;;8.80;3.80;;;;;;;-6.04;71.84;103328.25;4970490;28;20276;-89
2024/01/09 09:17:54;;;;;;;6.77;3.00;;;;;;;-6.02;72.07;103328.38;4951395;28;20613;-88
2024/01/09 09:20:20;;;;;;;8.63;3.80;;;;;;;-5.99;71.30;103319.38;4969640;28;20022;-89
2024/01/09 09:22:45;;;;;;;8.10;3.40;;;;;;;-5.98;71.87;103316.03;4969085;28;20027;-88
2024/01/09 09:25:11;;;;;;;7.03;3.13;;;;;;;-5.96;71.74;103317.06;4970178;28;20038;-88
2024/01/09 09:27:36;;;;;;;7.13;3.73;;;;;;;-5.89;71.69;103315.03;4952995;28;20026;-87
2024/01/09 09:30:02;;;;;;;7.83;3.53;;;;;;;-5.87;71.44;103308.44;4969656;28;20105;-90
2024/01/09 09:32:28;;;;;;;6.27;2.90;;;;;;;-5.84;71.28;103311.25;4952918;28;20082;-89
2024/01/09 09:34:53;;;;;;;8.73;3.27;;;;;;;-5.84;71.02;103311.25;4968663;28;20039;-89
2024/01/09 09:37:18;;;;;;;7.07;3.20;;;;;;;-5.78;71.20;103304.13;4970074;28;20522;-89
2024/01/09 09:39:44;;;;;;;7.10;3.00;;;;;;;-5.77;70.89;103316.03;4970799;28;20057;-89
2024/01/09 09:42:10;;;;;;;6.60;3.20;;;;;;;-5.77;70.65;103310.97;4943699;28;20034;-88
2024/01/09 09:44:37;;;;;;;6.20;2.87;;;;;;;-5.73;70.59;103318.06;4952268;28;20035;-88
2024/01/09 09:47:03;;;;;;;6.63;3.10;;;;;;;-5.71;70.28;103326.69;4967956;28;20117;-89
2024/01/09 09:49:30;;;;;;;6.77;2.80;;;;;;;-5.68;70.81;103320.97;4953043;28;20496;-89
2024/01/09 09:51:58;;;;;;;7.90;3.13;;;;;;;-5.64;70.39;103323.88;4969968;28;20051;-89
2024/01/09 09:54:24;;;;;;;6.53;2.93;;;;;;;-5.58;70.75;103322.59;4970017;28;20101;-90
2024/01/09 09:56:49;;;;;;;6.60;3.57;;;;;;;-5.55;69.70;103322.84;4951751;28;20488;-89
2024/01/09 09:59:15;;;;;;;6.37;3.00;;;;;;;-5.55;70.03;103328.78;4970322;28;20034;-89
2024/01/09 10:01:42;;;;;;;7.60;3.37;;;;;;;-5.50;69.65;103330.06;4968922;28;20492;-89
2024/01/09 10:04:32;;;;;;;8.33;3.33;;;;;;;-5.44;69.69;103322.06;4969706;28;20030;-89
2024/01/09 10:07:00;;;;;;;7.37;3.30;;;;;;;-5.40;69.79;103318.13;4969721;28;20022;-89
2024/01/09 10:09:33;;;;;;;8.17;3.43;;;;;;;-5.38;69.79;103316.63;4945803;28;20031;-89
2024/01/09 10:11:59;;;;;;;6.07;2.63;;;;;;;-5.34;69.84;103313.53;4968296;28;20523;-88
2024/01/09 10:14:24;;;;;;;6.80;3.47;;;;;;;-5.32;69.44;103314.53;4968913;28;20038;-88
2024/01/09 10:16:54;;;;;;;7.53;3.47;;;;;;;-5.26;68.99;103307.44;4952563;28;20046;-89
2024/01/09 10:19:22;;;;;;;7.57;3.50;;;;;;;-5.26;68.92;103309.06;4969788;28;20287;-89
2024/01/09 10:21:48;;;;;;;6.47;2.97;;;;;;;-5.23;69.37;103305.13;4951514;28;20114;-89
2024/01/09 10:24:14;;;;;;;7.50;3.20;;;;;;;-5.21;68.77;103295.97;4968953;28;20022;-89
2024/01/09 10:26:40;;;;;;;8.40;3.30;;;;;;;-5.16;69.03;103309.03;4947613;28;20031;-89
2024/01/09 10:29:08;;;;;;;7.53;3.33;;;;;;;-5.12;67.75;103294.94;4954389;28;20674;-88
2024/01/09 10:31:34;;;;;;;6.57;2.93;;;;;;;-5.11;68.17;103300.13;4969276;28;20066;-88
2024/01/09 10:33:59;;;;;;;6.57;2.87;;;;;;;-5.07;68.63;103309.75;4969043;28;20063;-89
2024/01/09 10:36:25;;;;;;;6.87;3.30;;;;;;;-4.99;68.10;103295.13;4945740;28;20030;-89
2024/01/09 10:38:50;;;;;;;9.57;4.00;;;;;;;-5.00;67.78;103302.63;4955520;28;20519;-89
2024/01/09 10:41:16;;;;;;;6.33;3.00;;;;;;;-4.98;67.67;103294.34;4973126;28;20038;-89
2024/01/09 10:43:47;;;;;;;7.40;3.23;;;;;;;-4.95;67.74;103283.56;4952108;28;20030;-89
2024/01/09 10:46:13;;;;;;;8.67;3.40;;;;;;;-4.92;67.38;103284.69;4973488;28;20034;-91
2024/01/09 10:48:41;;;;;;;6.40;2.87;;;;;;;-4.90;67.47;103283.16;4969858;28;20128;-90
2024/01/09 10:51:10;;;;;;;6.90;2.73;;;;;;;-4.85;67.46;103275.88;4971980;28;20030;-90
2024/01/09 10:53:38;;;;;;;7.50;3.10;;;;;;;-4.80;67.04;103273.69;4971686;28;20113;-91
2024/01/09 10:56:08;;;;;;;7.93;3.53;;;;;;;-4.78;66.83;103273.03;4970544;28;20057;-89
2024/01/09 10:58:35;;;;;;;6.47;3.00;;;;;;;-4.76;67.00;103261.34;4977195;28;20031;-90
2024/01/09 11:01:00;;;;;;;7.53;3.03;;;;;;;-4.70;67.36;103265.13;4952277;28;20110;-89
2024/01/09 11:03:26;;;;;;;6.57;2.70;;;;;;;-4.64;67.27;103261.41;4954642;28;20599;-91
2024/01/09 11:05:58;;;;;;;7.90;3.67;;;;;;;-4.59;66.34;103261.75;4953490;28;20070;-94
2024/01/09 11:08:25;;;;;;;7.63;3.37;;;;;;;-4.53;65.94;103259.69;4977060;28;20120;-92
2024/01/09 11:10:53;;;;;;;7.33;3.13;;;;;;;-4.51;66.22;103252.16;4973481;28;20078;-95
2024/01/09 11:13:22;;;;;;;8.33;3.23;;;;;;;-4.48;65.38;103253.31;4977931;28;20038;-90
2024/01/09 11:15:54;;;;;;;7.60;3.53;;;;;;;-4.43;65.81;103257.03;4972939;28;20045;-90
2024/01/09 11:18:20;;;;;;;;;;;;;;;-4.34;66.90;103250.91;4955070;28;20050;-91